Aérodrome :
LOGIN :

S'inscrire | Disclaimer

   EN    FR    IT 

 










Légende :    VFR   VFR Marginal   IFR   IFR Intensif   IFR Très Intensif
Visi : 
Plafond : 
>= 8 km
>= 3000ft
5 à 8 km
1000 à 3000 ft
1500m à 5 km
500 à 1000 ft
800 à 1500m
200 à 500 ft
< 800m
< 200 ft
Symboles :   Orages  Brouillard  Fortes neiges  Fortes précipitations  Vent > 20 kt
SIGMETs :   Divers  Orages  Givrage  Turbulence  Onde Orograph.  Cendres Volcan.






- Altitude de l'aérodrome : 302 ft
- Code IATA : CGN


EDDK - Cologne Bonn

DERNIER METAR :
  • 280750Z 07002KT 9999 FEW028 BKN044 02/00 Q0996 NOSIG

METARs EXPIRÉS :
  • 280720Z 07003KT 9999 FEW028 BKN044 02/00 Q0996 NOSIG
  • 280650Z 05003KT 9999 FEW028 BKN044 02/00 Q0996 NOSIG
  • 280620Z 06002KT 9999 FEW028 BKN044 02/00 Q0996 NOSIG
  • 280550Z 07003KT 9999 FEW028 BKN044 02/00 Q0995 NOSIG
  • 280520Z VRB02KT 9999 FEW028 BKN044 02/00 Q0995 NOSIG

TAF TAF EDDK
Valide du 28 à 06h jusqu'au 29 à 12h UTC


280500Z 2806/2912 VRB03KT 9999 BKN025
BECMG 2811/2813 29006KT
TEMPO 2813/2822 3000 -SHRASN BKN008TCU
TEMPO 2822/2907 BKN008
PROB30
TEMPO 2907/2910 2000 SHSNRA BKN008TCU



MET'MAP, la Météo Aéronautique d'un coup d'oeil ! - Copyright ORBIFLY Décembre 2007 - Disclaimer

ORBIFLY MET'MAP TEAM :

Programmation & Développement : Alexandra Zaïnal
Sur une idée originale de : Baudouin d'Aumeries
Assistance à la programmation : Marc-Olivier Méhu
Soutien technique & logistique : Manuel Goepfert

Contact : metmap@orbifly.com




SOURCES & CREDITS :

   NOAA